createdAt,value
2019-04-16T00:01:00.939Z,98.4024
2019-04-16T00:02:10.012Z,98.0453
2019-04-16T00:03:20.349Z,98.3658
2019-04-16T00:04:31.949Z,98.5168
2019-04-16T00:05:40.299Z,98.6221
2019-04-16T00:06:48.275Z,98.0224
2019-04-16T00:07:56.964Z,96.9680
2019-04-16T00:09:05.919Z,95.4726
2019-04-16T00:10:14.959Z,96.1944
2019-04-16T00:11:23.294Z,96.7895
2019-04-16T00:12:32.940Z,97.2244
2019-04-16T00:13:41.292Z,96.9970
2019-04-16T00:14:50.902Z,96.9192
2019-04-16T00:15:59.944Z,97.2564
2019-04-16T00:17:09.013Z,97.4365
2019-04-16T00:18:18.744Z,95.6268
2019-04-16T00:19:26.891Z,93.3837
2019-04-16T00:20:37.933Z,93.2784
2019-04-16T00:21:46.987Z,92.8252
2019-04-16T00:22:56.016Z,93.6965
2019-04-16T00:24:04.796Z,93.6538
2019-04-16T00:25:13.975Z,95.1736
2019-04-16T00:26:26.580Z,96.1303
2019-04-16T00:27:35.734Z,95.6146
2019-04-16T00:28:44.285Z,95.4345
2019-04-16T00:29:53.005Z,95.1385
2019-04-16T00:31:01.277Z,94.2550
2019-04-16T00:32:10.011Z,93.5897
2019-04-16T00:33:18.920Z,93.9345
2019-04-16T00:34:27.901Z,93.2937
2019-04-16T00:35:36.951Z,92.7672
2019-04-16T00:36:48.419Z,93.4218
2019-04-16T00:37:58.415Z,93.8369
2019-04-16T00:39:06.953Z,94.7112
2019-04-16T00:40:15.910Z,94.7631
2019-04-16T00:41:25.057Z,94.2412
2019-04-16T00:42:34.002Z,94.2779
2019-04-16T00:43:44.083Z,94.7478
2019-04-16T00:44:54.006Z,94.7540
2019-04-16T00:46:03.110Z,95.6725
2019-04-16T00:47:11.967Z,95.8602
2019-04-16T00:48:20.907Z,95.4452
2019-04-16T00:49:31.003Z,95.4772
2019-04-16T00:50:39.301Z,94.8821
2019-04-16T00:51:47.967Z,94.0108
2019-04-16T00:52:56.293Z,94.7616
2019-04-16T00:54:09.891Z,95.0744
2019-04-16T00:55:18.295Z,95.3704
2019-04-16T00:56:26.888Z,96.1898
2019-04-16T00:57:35.950Z,96.4157
2019-04-16T00:58:44.973Z,96.9879
2019-04-16T00:59:56.283Z,97.2946
2019-04-16T01:01:05.264Z,97.2702
2019-04-16T01:02:12.921Z,97.3816
2019-04-16T01:03:21.991Z,97.3617
2019-04-16T01:04:30.968Z,97.5051
2019-04-16T01:05:40.301Z,98.1125
2019-04-16T01:06:48.871Z,98.7350
2019-04-16T01:07:57.297Z,98.6343
2019-04-16T01:09:05.988Z,98.0438
2019-04-16T01:10:13.314Z,98.0224
2019-04-16T01:11:21.971Z,97.7829
2019-04-16T01:12:30.267Z,97.2488
2019-04-16T01:13:38.910Z,95.7519
2019-04-16T01:14:47.973Z,95.6603
2019-04-16T01:15:57.194Z,96.0632
2019-04-16T01:17:05.982Z,96.0067
2019-04-16T01:18:14.302Z,95.4803
2019-04-16T01:19:23.028Z,95.3933
2019-04-16T01:20:31.906Z,96.0128
2019-04-16T01:21:44.517Z,95.7366
2019-04-16T01:22:54.081Z,95.3719
2019-04-16T01:24:02.931Z,95.3124
2019-04-16T01:25:11.970Z,96.0113
2019-04-16T01:26:21.220Z,96.5255
2019-04-16T01:27:29.606Z,96.8460
2019-04-16T01:28:38.016Z,97.2854
2019-04-16T01:29:46.960Z,97.8576
2019-04-16T01:30:55.998Z,98.2422
2019-04-16T01:32:10.292Z,98.3047
2019-04-16T01:33:18.292Z,97.9263
2019-04-16T01:34:26.945Z,97.9065
2019-04-16T01:35:35.306Z,98.1765
2019-04-16T01:36:44.342Z,98.2284
2019-04-16T01:37:56.538Z,98.2681
2019-04-16T01:39:16.087Z,98.3383
2019-04-16T01:40:19.354Z,98.5351
2019-04-16T01:41:27.990Z,99.1012
2019-04-16T01:42:36.952Z,99.4034
2019-04-16T01:43:45.991Z,99.3957
2019-04-16T01:44:54.056Z,99.5590
2019-04-16T01:46:02.609Z,99.3545
2019-04-16T01:47:11.871Z,99.4492
2019-04-16T01:48:19.318Z,99.2660
2019-04-16T01:49:27.933Z,98.8830
2019-04-16T01:50:36.278Z,98.5351
2019-04-16T01:51:47.445Z,98.8769
2019-04-16T01:52:57.265Z,99.7147
2019-04-16T01:54:05.928Z,100.0000
2019-04-16T01:55:15.057Z,100.0000
2019-04-16T01:56:27.976Z,100.0000
2019-04-16T01:57:36.281Z,100.0000
2019-04-16T01:58:44.335Z,100.0000
2019-04-16T01:59:53.887Z,100.0000
2019-04-16T02:01:02.364Z,100.0000
2019-04-16T02:02:14.579Z,100.0000
2019-04-16T02:03:24.979Z,100.0000
2019-04-16T02:04:33.781Z,100.0000
2019-04-16T02:05:42.982Z,100.0000
2019-04-16T02:06:54.308Z,99.1699
2019-04-16T02:08:05.329Z,98.4833
2019-04-16T02:09:22.501Z,98.4833
2019-04-16T02:10:26.908Z,98.5885
2019-04-16T02:11:38.816Z,98.7900
2019-04-16T02:12:50.953Z,99.1943
2019-04-16T02:13:59.977Z,99.4034
2019-04-16T02:15:09.094Z,99.4873
2019-04-16T02:16:17.968Z,99.5560
2019-04-16T02:17:27.054Z,99.6231
2019-04-16T02:18:36.917Z,98.8266
2019-04-16T02:19:45.262Z,98.4146
2019-04-16T02:20:52.846Z,98.1033
2019-04-16T02:22:02.015Z,97.8576
2019-04-16T02:23:13.581Z,98.3276
2019-04-16T02:24:24.297Z,98.7488
2019-04-16T02:25:33.947Z,97.7966
2019-04-16T02:26:42.972Z,97.4304
2019-04-16T02:27:54.222Z,97.5692
2019-04-16T02:29:04.965Z,98.0209
2019-04-16T02:30:13.018Z,98.6572
2019-04-16T02:31:21.294Z,99.3805
2019-04-16T02:32:30.043Z,99.8260
2019-04-16T02:33:38.979Z,100.0000
2019-04-16T02:34:47.299Z,100.0000
2019-04-16T02:35:55.978Z,100.0000
2019-04-16T02:37:04.937Z,100.0000
2019-04-16T02:38:14.182Z,100.0000
2019-04-16T02:39:46.288Z,100.0000
2019-04-16T02:40:36.905Z,100.0000
2019-04-16T02:41:45.965Z,100.0000
2019-04-16T02:42:54.969Z,100.0000
2019-04-16T02:44:04.026Z,100.0000
2019-04-16T02:45:13.168Z,100.0000
2019-04-16T02:46:22.066Z,100.0000
2019-04-16T02:47:30.982Z,100.0000
2019-04-16T02:48:38.935Z,100.0000
2019-04-16T02:49:47.298Z,100.0000
2019-04-16T02:50:55.311Z,100.0000
2019-04-16T02:52:04.017Z,100.0000
2019-04-16T02:53:13.113Z,100.0000
2019-04-16T02:54:21.929Z,100.0000
2019-04-16T02:55:30.919Z,100.0000
2019-04-16T02:56:39.398Z,100.0000
2019-04-16T02:57:48.046Z,100.0000
2019-04-16T02:58:56.299Z,100.0000
2019-04-16T03:00:05.384Z,100.0000
2019-04-16T03:01:13.295Z,100.0000
2019-04-16T03:02:23.091Z,100.0000
2019-04-16T03:03:32.635Z,100.0000
2019-04-16T03:04:41.857Z,100.0000
2019-04-16T03:05:50.996Z,100.0000
2019-04-16T03:07:02.784Z,100.0000
2019-04-16T03:08:12.265Z,100.0000
2019-04-16T03:09:21.000Z,100.0000
2019-04-16T03:10:29.357Z,100.0000
2019-04-16T03:11:37.383Z,100.0000
2019-04-16T03:12:46.131Z,100.0000
2019-04-16T03:13:58.288Z,100.0000
2019-04-16T03:15:07.294Z,100.0000
2019-04-16T03:16:14.919Z,100.0000
2019-04-16T03:17:24.182Z,100.0000
2019-04-16T03:18:33.168Z,100.0000
2019-04-16T03:19:41.290Z,100.0000
2019-04-16T03:20:52.474Z,100.0000
2019-04-16T03:22:03.736Z,100.0000
2019-04-16T03:23:12.283Z,100.0000
2019-04-16T03:24:20.950Z,100.0000
2019-04-16T03:25:30.034Z,100.0000
2019-04-16T03:26:38.913Z,100.0000
2019-04-16T03:27:47.932Z,100.0000
2019-04-16T03:28:59.133Z,100.0000
2019-04-16T03:30:07.365Z,100.0000
2019-04-16T03:31:22.287Z,100.0000
2019-04-16T03:32:35.308Z,100.0000
2019-04-16T03:33:50.308Z,100.0000
2019-04-16T03:34:57.278Z,100.0000
2019-04-16T03:36:06.090Z,100.0000
2019-04-16T03:37:14.297Z,100.0000
2019-04-16T03:38:23.203Z,100.0000
2019-04-16T03:39:32.466Z,100.0000
2019-04-16T03:40:39.917Z,100.0000
2019-04-16T03:41:48.288Z,100.0000
2019-04-16T03:42:59.005Z,100.0000
2019-04-16T03:44:09.002Z,99.4308
2019-04-16T03:45:17.276Z,99.5102
2019-04-16T03:46:26.258Z,99.1745
2019-04-16T03:47:35.014Z,98.7045
2019-04-16T03:48:44.020Z,98.4649
2019-04-16T03:49:56.400Z,97.5372
2019-04-16T03:51:06.476Z,98.2406
2019-04-16T03:52:15.163Z,98.8556
2019-04-16T03:53:25.086Z,99.3316
2019-04-16T03:54:34.998Z,99.8886
2019-04-16T03:55:43.933Z,100.0000
2019-04-16T03:56:52.253Z,100.0000
2019-04-16T03:58:05.171Z,100.0000
2019-04-16T03:59:13.887Z,100.0000
2019-04-16T04:00:22.309Z,100.0000
2019-04-16T04:01:30.977Z,100.0000
2019-04-16T04:02:39.881Z,100.0000
2019-04-16T04:03:48.288Z,100.0000
2019-04-16T04:04:57.628Z,100.0000
2019-04-16T04:06:09.402Z,100.0000
2019-04-16T04:07:18.290Z,100.0000
2019-04-16T04:08:27.008Z,100.0000
2019-04-16T04:09:36.005Z,100.0000
2019-04-16T04:10:44.999Z,100.0000
2019-04-16T04:11:53.986Z,100.0000
2019-04-16T04:13:04.921Z,100.0000
2019-04-16T04:14:13.284Z,100.0000
2019-04-16T04:15:25.924Z,100.0000
2019-04-16T04:16:35.948Z,100.0000
2019-04-16T04:17:45.310Z,100.0000
2019-04-16T04:18:53.905Z,100.0000
2019-04-16T04:20:02.930Z,100.0000
2019-04-16T04:21:11.993Z,100.0000
2019-04-16T04:22:22.720Z,100.0000
2019-04-16T04:23:34.291Z,100.0000
2019-04-16T04:24:43.055Z,100.0000
2019-04-16T04:25:51.285Z,100.0000
2019-04-16T04:26:59.273Z,100.0000
2019-04-16T04:28:08.249Z,100.0000
2019-04-16T04:29:16.957Z,100.0000
2019-04-16T04:30:28.906Z,100.0000
2019-04-16T04:31:38.964Z,100.0000
2019-04-16T04:32:51.013Z,100.0000
2019-04-16T04:34:00.013Z,100.0000
2019-04-16T04:35:09.193Z,100.0000
2019-04-16T04:36:19.602Z,100.0000
2019-04-16T04:37:30.904Z,100.0000
2019-04-16T04:38:40.309Z,100.0000
2019-04-16T04:39:48.313Z,100.0000
2019-04-16T04:40:59.623Z,100.0000
2019-04-16T04:42:09.009Z,100.0000
2019-04-16T04:43:17.281Z,100.0000
2019-04-16T04:44:25.961Z,100.0000
2019-04-16T04:45:37.634Z,100.0000
2019-04-16T04:46:48.965Z,100.0000
2019-04-16T04:47:58.065Z,100.0000
2019-04-16T04:49:07.204Z,100.0000
2019-04-16T04:50:15.946Z,100.0000
2019-04-16T04:51:24.295Z,100.0000
2019-04-16T04:52:32.941Z,100.0000
2019-04-16T04:53:41.940Z,100.0000
2019-04-16T04:54:51.409Z,100.0000
2019-04-16T04:56:03.963Z,100.0000
2019-04-16T04:57:12.953Z,100.0000
2019-04-16T04:58:21.918Z,100.0000
2019-04-16T04:59:30.398Z,100.0000
2019-04-16T05:00:40.425Z,100.0000
2019-04-16T05:01:49.340Z,100.0000
2019-04-16T05:02:57.267Z,100.0000
2019-04-16T05:04:05.681Z,100.0000
2019-04-16T05:05:15.254Z,100.0000
2019-04-16T05:06:26.735Z,100.0000
2019-04-16T05:07:36.464Z,100.0000
2019-04-16T05:08:45.008Z,100.0000
2019-04-16T05:09:53.955Z,100.0000
2019-04-16T05:11:03.209Z,100.0000
2019-04-16T05:12:11.931Z,100.0000
2019-04-16T05:13:23.958Z,100.0000
2019-04-16T05:14:33.945Z,100.0000
2019-04-16T05:15:43.241Z,100.0000
2019-04-16T05:16:51.384Z,100.0000
2019-04-16T05:18:00.053Z,100.0000
2019-04-16T05:19:13.839Z,100.0000
2019-04-16T05:20:22.392Z,100.0000
2019-04-16T05:21:31.147Z,100.0000
2019-04-16T05:22:40.985Z,100.0000
2019-04-16T05:23:50.007Z,100.0000
2019-04-16T05:25:01.344Z,100.0000
2019-04-16T05:26:11.797Z,100.0000
2019-04-16T05:27:21.165Z,100.0000
2019-04-16T05:28:30.011Z,100.0000
2019-04-16T05:29:38.302Z,100.0000
2019-04-16T05:30:51.860Z,100.0000
2019-04-16T05:32:00.278Z,100.0000
2019-04-16T05:33:08.268Z,100.0000
2019-04-16T05:34:18.815Z,100.0000
2019-04-16T05:35:28.233Z,100.0000
2019-04-16T05:36:36.390Z,100.0000
2019-04-16T05:37:43.929Z,100.0000
2019-04-16T05:38:55.445Z,100.0000
2019-04-16T05:40:05.932Z,99.9359
2019-04-16T05:41:20.264Z,99.6384
2019-04-16T05:42:27.307Z,99.3408
2019-04-16T05:43:36.231Z,98.8098
2019-04-16T05:44:44.273Z,98.5992
2019-04-16T05:45:52.336Z,98.2223
2019-04-16T05:47:01.145Z,98.0865
2019-04-16T05:48:11.186Z,97.8347
2019-04-16T05:49:24.855Z,97.5006
2019-04-16T05:50:33.293Z,97.8469
2019-04-16T05:51:42.668Z,97.7707
2019-04-16T05:52:52.168Z,97.4731
2019-04-16T05:54:00.370Z,97.1695
2019-04-16T05:55:09.063Z,97.1710
2019-04-16T05:56:22.641Z,96.8994
2019-04-16T05:57:31.371Z,96.5835
2019-04-16T05:58:39.910Z,96.5255
2019-04-16T05:59:49.029Z,96.3516
2019-04-16T06:00:57.988Z,96.2188
2019-04-16T06:02:07.137Z,95.6954
2019-04-16T06:03:20.669Z,95.4040
2019-04-16T06:04:30.023Z,95.8419
2019-04-16T06:05:37.972Z,96.1120
2019-04-16T06:06:47.159Z,92.7993
2019-04-16T06:07:55.576Z,90.2663
2019-04-16T06:09:02.755Z,88.8380
2019-04-16T06:10:17.057Z,88.1560
2019-04-16T06:11:29.224Z,89.1188
2019-04-16T06:12:40.167Z,88.2521
2019-04-16T06:13:48.948Z,88.5222
2019-04-16T06:14:57.997Z,88.0552
2019-04-16T06:16:06.925Z,88.6748
2019-04-16T06:17:15.965Z,87.8676
2019-04-16T06:18:24.894Z,88.5283
2019-04-16T06:19:34.441Z,86.3523
2019-04-16T06:20:43.059Z,85.8274
2019-04-16T06:24:08.376Z,84.5731
2019-04-16T06:24:08.376Z,86.6697
2019-04-16T06:25:18.183Z,80.9796
2019-04-16T06:26:27.958Z,78.8952
2019-04-16T06:27:38.668Z,77.8485
2019-04-16T06:28:48.333Z,79.0707
2019-04-16T06:30:01.210Z,83.6698
2019-04-16T06:31:11.337Z,83.9414
2019-04-16T06:32:22.154Z,82.7878
2019-04-16T06:33:31.674Z,83.2120
2019-04-16T06:34:41.933Z,83.5111
2019-04-16T06:35:51.835Z,87.4205
2019-04-16T06:37:01.958Z,88.7373
2019-04-16T06:38:12.053Z,90.1717
2019-04-16T06:39:22.045Z,91.2413
2019-04-16T06:40:32.852Z,91.8288
2019-04-16T06:41:47.665Z,92.2087
2019-04-16T06:42:58.001Z,90.7011
2019-04-16T06:44:09.878Z,87.7852
2019-04-16T06:45:20.499Z,88.7571
2019-04-16T06:46:29.755Z,89.5750
2019-04-16T06:47:41.782Z,86.3493
2019-04-16T06:48:51.290Z,84.0085
2019-04-16T06:50:00.306Z,80.8469
2019-04-16T06:51:12.507Z,79.5148
2019-04-16T06:52:21.909Z,77.8210
2019-04-16T06:53:32.317Z,78.9364
2019-04-16T06:54:45.310Z,79.8840
2019-04-16T06:55:56.786Z,80.6897
2019-04-16T06:57:05.949Z,80.8011
2019-04-16T06:58:16.428Z,78.5061
2019-04-16T06:59:29.337Z,75.5047
2019-04-16T07:00:40.005Z,76.7620
2019-04-16T07:01:50.068Z,77.9767
2019-04-16T07:03:02.468Z,78.5245
2019-04-16T07:04:13.005Z,79.1257
2019-04-16T07:05:33.266Z,81.1978
2019-04-16T07:06:43.730Z,79.8352
2019-04-16T07:07:54.237Z,78.6358
2019-04-16T07:09:04.390Z,80.1907
2019-04-16T07:10:15.047Z,76.4431
2019-04-16T07:11:26.161Z,76.2051
2019-04-16T07:13:58.362Z,75.3063
2019-04-16T07:15:07.699Z,74.4778
2019-04-16T07:16:16.330Z,72.9122
2019-04-16T07:17:26.052Z,73.3562
2019-04-16T07:18:38.579Z,70.8751
2019-04-16T07:19:48.289Z,73.0022
2019-04-16T07:20:57.355Z,77.0657
2019-04-16T07:22:07.040Z,78.8724
2019-04-16T07:23:17.767Z,79.4232
2019-04-16T07:24:30.807Z,78.7228
2019-04-16T07:25:44.144Z,81.1475
2019-04-16T07:26:56.618Z,82.1881
2019-04-16T07:28:09.272Z,81.7349
2019-04-16T07:29:24.307Z,81.6144
2019-04-16T07:30:38.419Z,82.5772
2019-04-16T07:31:53.251Z,82.3743
2019-04-16T07:33:05.524Z,81.6800
2019-04-16T07:34:14.289Z,83.2135
2019-04-16T07:35:27.889Z,81.6159
2019-04-16T07:36:42.101Z,82.2461
2019-04-16T07:37:53.018Z,82.6719
2019-04-16T07:39:07.631Z,82.8321
2019-04-16T07:40:16.369Z,80.5798
2019-04-16T07:41:27.295Z,81.0010
2019-04-16T07:42:51.692Z,81.9211
2019-04-16T07:43:57.218Z,82.2187
2019-04-16T07:45:11.431Z,83.4134
2019-04-16T07:46:21.392Z,79.1028
2019-04-16T07:47:32.966Z,77.9751
2019-04-16T07:48:45.984Z,78.5657
2019-04-16T07:49:59.855Z,77.2427
2019-04-16T07:51:10.360Z,78.6954
2019-04-16T07:52:21.334Z,75.9930
2019-04-16T07:53:31.538Z,72.6329
2019-04-16T07:54:40.311Z,73.1090
2019-04-16T07:55:49.431Z,73.0068
2019-04-16T07:56:58.314Z,73.6065
2019-04-16T07:58:08.365Z,71.8990
2019-04-16T07:59:19.026Z,70.5943
2019-04-16T08:00:29.119Z,72.7520
2019-04-16T08:01:39.932Z,71.0491
2019-04-16T08:02:53.867Z,71.5969
2019-04-16T08:04:03.612Z,74.7662
2019-04-16T08:05:12.328Z,74.1619
2019-04-16T08:06:21.334Z,74.8379
2019-04-16T08:07:32.251Z,74.7112
2019-04-16T08:08:42.646Z,75.9762
2019-04-16T08:09:51.302Z,73.5531
2019-04-16T08:12:33.326Z,74.3770
2019-04-16T08:13:45.764Z,73.4325
2019-04-16T08:14:54.362Z,75.5734
2019-04-16T08:16:04.317Z,75.4345
2019-04-16T08:17:14.031Z,74.1848
2019-04-16T08:19:44.797Z,77.8210
2019-04-16T08:21:01.701Z,74.4366
2019-04-16T08:22:15.530Z,74.8028
2019-04-16T08:23:25.077Z,75.8846
2019-04-16T08:24:34.393Z,74.8989
2019-04-16T08:25:44.761Z,75.5627
2019-04-16T08:26:56.254Z,74.9676
2019-04-16T08:28:09.443Z,74.5876
2019-04-16T08:29:18.501Z,74.6456
2019-04-16T08:30:27.391Z,74.7936
2019-04-16T08:33:05.481Z,73.6904
2019-04-16T08:35:39.339Z,72.8115
2019-04-16T08:38:20.674Z,71.9005
2019-04-16T08:39:29.375Z,71.6487
2019-04-16T08:42:06.817Z,73.2876
2019-04-16T08:43:22.356Z,70.2235
2019-04-16T08:44:35.796Z,68.7648
2019-04-16T08:49:54.081Z,70.4540
2019-04-16T08:52:26.290Z,68.9754
2019-04-16T08:54:55.400Z,71.3466
2019-04-16T08:56:05.020Z,70.7927
2019-04-16T08:57:18.041Z,68.9982
2019-04-16T08:59:54.858Z,70.5440
2019-04-16T09:01:04.296Z,72.1660
2019-04-16T09:02:13.816Z,72.5002
2019-04-16T09:03:26.716Z,69.6513
2019-04-16T09:04:37.311Z,69.9123
2019-04-16T09:05:46.293Z,69.5598
2019-04-16T09:07:09.634Z,69.7124
2019-04-16T09:08:13.943Z,69.2805
2019-04-16T09:09:25.555Z,69.6513
2019-04-16T09:10:34.390Z,70.0557
2019-04-16T09:11:44.194Z,70.8934
2019-04-16T09:13:03.319Z,68.0507
2019-04-16T09:14:16.841Z,68.6687
2019-04-16T09:15:29.343Z,69.6574
2019-04-16T09:16:45.219Z,71.7205
2019-04-16T09:17:57.093Z,71.4290
2019-04-16T09:19:08.593Z,68.3482
2019-04-16T09:20:17.272Z,70.7179
2019-04-16T09:21:31.255Z,69.3278
2019-04-16T09:24:08.862Z,68.0827
2019-04-16T09:25:22.987Z,65.9312
2019-04-16T09:26:36.437Z,64.4694
2019-04-16T09:30:30.925Z,61.9150
2019-04-16T09:33:01.886Z,59.7696
2019-04-16T09:34:10.481Z,65.0751
2019-04-16T09:35:20.752Z,65.7420
2019-04-16T09:40:36.588Z,67.6280
2019-04-16T09:42:01.755Z,66.1738
2019-04-16T09:43:17.441Z,59.8062
2019-04-16T09:47:16.733Z,59.2935
2019-04-16T09:52:38.562Z,62.5895
2019-04-16T09:55:19.634Z,65.4948
2019-04-16T09:56:30.116Z,62.1317
2019-04-16T09:57:39.994Z,63.4867
2019-04-16T10:03:01.356Z,64.8280
2019-04-16T10:04:15.655Z,62.8504
2019-04-16T10:09:37.586Z,64.0757
2019-04-16T10:13:35.747Z,60.7034
2019-04-16T10:14:48.576Z,63.0381
2019-04-16T10:15:57.403Z,62.9786
2019-04-16T10:17:06.341Z,64.5975
2019-04-16T10:19:56.724Z,62.9221
2019-04-16T10:21:08.474Z,60.3311
2019-04-16T10:22:17.310Z,59.7604
2019-04-16T10:23:29.673Z,60.5188
2019-04-16T10:24:59.775Z,60.4196
2019-04-16T10:26:08.348Z,60.4105
2019-04-16T10:28:39.346Z,60.0488
2019-04-16T10:31:14.699Z,60.1526
2019-04-16T10:38:16.410Z,57.6638
2019-04-16T10:39:26.358Z,58.1079
2019-04-16T10:40:39.933Z,61.0422
2019-04-16T10:43:09.336Z,61.1383
2019-04-16T10:45:51.170Z,54.8302
2019-04-16T10:47:01.492Z,56.5560
2019-04-16T10:49:30.473Z,57.8958
2019-04-16T10:52:04.855Z,58.0056
2019-04-16T10:54:39.817Z,58.6282
2019-04-16T10:55:50.557Z,55.9518
2019-04-16T10:56:59.313Z,55.5886
2019-04-16T10:58:10.147Z,56.8673
2019-04-16T10:59:23.027Z,55.4925
2019-04-16T11:00:39.373Z,59.4629
2019-04-16T11:04:35.953Z,54.0871
2019-04-16T11:05:45.372Z,58.6328
2019-04-16T11:06:58.927Z,59.3027
2019-04-16T11:08:09.431Z,57.4105
2019-04-16T11:09:22.097Z,60.5203
2019-04-16T11:10:31.345Z,57.6638
2019-04-16T11:11:44.898Z,57.9339
2019-04-16T11:12:54.317Z,59.8520
2019-04-16T11:14:03.376Z,57.0596
2019-04-16T11:15:35.246Z,56.3134
2019-04-16T11:16:45.032Z,56.5774
2019-04-16T11:19:24.561Z,56.3760
2019-04-16T11:20:34.643Z,57.9644
2019-04-16T11:21:44.713Z,57.8424
2019-04-16T11:22:56.041Z,56.9039
2019-04-16T11:24:08.191Z,58.9273
2019-04-16T11:25:21.218Z,55.9045
2019-04-16T11:26:32.950Z,55.9594
2019-04-16T11:27:42.445Z,56.3821
2019-04-16T11:31:35.345Z,60.3082
2019-04-16T11:32:43.667Z,58.0240
2019-04-16T11:39:29.250Z,58.5779
2019-04-16T11:42:13.101Z,53.9651
2019-04-16T11:43:25.747Z,55.0805
2019-04-16T11:44:38.178Z,53.4691
2019-04-16T11:45:48.136Z,53.0068
2019-04-16T11:46:58.409Z,51.7266
2019-04-16T11:48:07.381Z,53.0617
2019-04-16T11:49:18.294Z,52.8573
2019-04-16T11:50:29.650Z,51.7571
2019-04-16T11:51:38.250Z,52.8420
2019-04-16T11:52:48.364Z,54.0688
2019-04-16T11:54:00.699Z,58.3764
2019-04-16T11:55:10.067Z,57.9202
2019-04-16T11:56:22.497Z,59.6948
2019-04-16T11:57:37.069Z,54.4869
2019-04-16T11:58:47.541Z,60.6256
2019-04-16T12:00:06.714Z,54.2489
2019-04-16T12:01:11.354Z,54.5815
2019-04-16T12:02:20.557Z,55.0408
2019-04-16T12:03:34.928Z,56.0937
2019-04-16T12:04:55.856Z,56.4736
2019-04-16T12:06:10.623Z,56.4172
2019-04-16T12:07:20.003Z,56.6323
2019-04-16T12:08:30.004Z,55.1049
2019-04-16T12:09:39.358Z,55.7229
2019-04-16T12:10:49.381Z,57.2106
2019-04-16T12:12:00.281Z,56.5866
2019-04-16T12:13:09.909Z,55.4925
2019-04-16T12:14:30.775Z,56.4492
2019-04-16T12:15:36.541Z,57.8515
2019-04-16T12:16:46.101Z,59.6948
2019-04-16T12:17:55.487Z,55.1949
2019-04-16T12:19:05.243Z,55.1446
2019-04-16T12:20:14.386Z,55.3597
2019-04-16T12:21:24.244Z,57.1054
2019-04-16T12:22:36.962Z,56.0281
2019-04-16T12:23:47.090Z,56.9528
2019-04-16T12:24:57.530Z,58.2681
2019-04-16T12:26:09.404Z,58.3276
2019-04-16T12:27:19.747Z,57.1603
2019-04-16T12:28:30.123Z,57.4624
2019-04-16T12:29:41.435Z,59.2752
2019-04-16T12:30:51.365Z,56.2127
2019-04-16T12:32:03.588Z,57.6303
2019-04-16T12:33:15.198Z,58.7304
2019-04-16T12:34:25.736Z,61.7960
2019-04-16T12:35:35.657Z,55.8053
2019-04-16T12:36:46.859Z,55.8312
2019-04-16T12:37:58.433Z,54.9065
2019-04-16T12:39:10.140Z,54.5098
2019-04-16T12:40:21.172Z,51.7906
2019-04-16T12:41:30.298Z,53.6568
2019-04-16T12:42:42.875Z,55.3567
2019-04-16T12:43:51.789Z,51.6426
